Aviation Digital Data Service (ADDS)

Output produced by TAFs form (0629 UTC 27 March 2017)
found at http://www.aviationweather.gov/adds/tafs/
 
METAR text: RJOY 270600Z 33012KT 290V360 9999 FEW035 BKN060 13/M04 Q1013
Conditions at: RJOY (YAO (CIV/JGSDF) , JP) observed 0600 UTC 27 March 2017
Temperature: 13.0°C (55°F)
Dewpoint: -4.0°C (25°F) [RH = 30%]
Pressure (altimeter): 29.91 inches Hg (1013.0 mb)
Winds: from the NNW (330 degrees) at 14 MPH (12 knots; 6.2 m/s)
Visibility: 6 or more miles (10+ km)
Ceiling: 6000 feet AGL
Clouds: few clouds at 3500 feet AGL
broken clouds at 6000 feet AGL
Weather: no significant weather observed at this time